KFET/FET METAR and TAF weather

Enter ICAO airport designator
Station Type Date Time Source
KFET METAR 2021/01/16 02:15 UTC NOAA

KFET 160215Z AUTO 32020G26KT 10SM OVC016 M01/M04 A2991 RMK AO2 T10061036


Station Type Date Time Source
KFET Decoded METAR 2021/01/16 02:15 UTC NOAA

Fremont Municipal Airport, NE, United States (KFET) 41-27N 096-31W
Jan 15, 2021 - 09:15 PM EST / 2021.01.16 0215 UTC
Wind: from the NW (320 degrees) at 23 MPH (20 KT) gusting to 30 MPH (26 KT):0
Visibility: 10 mile(s):0
Sky conditions: overcast
Temperature: 30.9 F (-0.6 C)
Windchill: 17 F (-8 C):1
Dew Point: 25.5 F (-3.6 C)
Relative Humidity: 80%
Pressure (altimeter): 29.91 in. Hg (1012 hPa)
ob: KFET 160215Z AUTO 32020G26KT 10SM OVC016 M01/M04 A2991 RMK AO2 T10061036
cycle: 2

Station Type Date Time Source
KFET TAF UTC NOAA

Error!

Example: see airport list